sensor_id;sensor_type;location;lat;lon;timestamp;pressure;altitude;pressure_sealevel;temperature;humidity
10948;BME280;5526;42.070;24.752;2023-02-05T00:00:38;98896.06;;;2.07;100.00
10948;BME280;5526;42.070;24.752;2023-02-05T00:03:07;98908.22;;;2.13;100.00
10948;BME280;5526;42.070;24.752;2023-02-05T00:05:34;98902.06;;;2.14;100.00
10948;BME280;5526;42.070;24.752;2023-02-05T00:08:01;98910.25;;;2.04;100.00
10948;BME280;5526;42.070;24.752;2023-02-05T00:10:28;98902.84;;;2.08;100.00
10948;BME280;5526;42.070;24.752;2023-02-05T00:12:55;98925.41;;;2.07;100.00
10948;BME280;5526;42.070;24.752;2023-02-05T00:15:22;98914.81;;;2.02;100.00
10948;BME280;5526;42.070;24.752;2023-02-05T00:17:49;98930.22;;;1.97;100.00
10948;BME280;5526;42.070;24.752;2023-02-05T00:20:18;98925.59;;;1.99;100.00
10948;BME280;5526;42.070;24.752;2023-02-05T00:22:45;98928.81;;;2.01;100.00
10948;BME280;5526;42.070;24.752;2023-02-05T00:25:12;98930.78;;;1.99;100.00
10948;BME280;5526;42.070;24.752;2023-02-05T00:27:39;98948.97;;;1.99;100.00
10948;BME280;5526;42.070;24.752;2023-02-05T00:30:07;98949.56;;;1.95;100.00
10948;BME280;5526;42.070;24.752;2023-02-05T00:32:34;98952.75;;;1.97;100.00
10948;BME280;5526;42.070;24.752;2023-02-05T00:35:02;98961.34;;;2.04;100.00
10948;BME280;5526;42.070;24.752;2023-02-05T00:37:30;98963.75;;;2.05;100.00
10948;BME280;5526;42.070;24.752;2023-02-05T00:39:57;98969.75;;;2.06;100.00
10948;BME280;5526;42.070;24.752;2023-02-05T00:42:24;98968.13;;;1.98;100.00
10948;BME280;5526;42.070;24.752;2023-02-05T00:44:51;98967.72;;;2.08;100.00
10948;BME280;5526;42.070;24.752;2023-02-05T00:47:18;98977.91;;;2.03;100.00
10948;BME280;5526;42.070;24.752;2023-02-05T00:49:45;98998.47;;;2.11;100.00
10948;BME280;5526;42.070;24.752;2023-02-05T00:52:12;98999.69;;;2.02;100.00
10948;BME280;5526;42.070;24.752;2023-02-05T00:54:40;98998.88;;;2.01;100.00
10948;BME280;5526;42.070;24.752;2023-02-05T00:57:07;98993.28;;;1.98;100.00
10948;BME280;5526;42.070;24.752;2023-02-05T00:59:35;98989.50;;;2.07;100.00
10948;BME280;5526;42.070;24.752;2023-02-05T01:02:02;98989.50;;;2.00;100.00
10948;BME280;5526;42.070;24.752;2023-02-05T01:04:29;98995.09;;;2.04;100.00
10948;BME280;5526;42.070;24.752;2023-02-05T01:06:56;99001.28;;;1.96;100.00
10948;BME280;5526;42.070;24.752;2023-02-05T01:09:23;98998.06;;;1.94;100.00
10948;BME280;5526;42.070;24.752;2023-02-05T01:11:51;98993.25;;;1.85;100.00
10948;BME280;5526;42.070;24.752;2023-02-05T01:14:18;99003.44;;;1.73;100.00
10948;BME280;5526;42.070;24.752;2023-02-05T01:16:45;98998.25;;;1.67;100.00
10948;BME280;5526;42.070;24.752;2023-02-05T01:19:12;99006.41;;;1.64;100.00
10948;BME280;5526;42.070;24.752;2023-02-05T01:21:39;99004.81;;;1.63;100.00
10948;BME280;5526;42.070;24.752;2023-02-05T01:24:06;99006.19;;;1.59;100.00
10948;BME280;5526;42.070;24.752;2023-02-05T01:26:33;99003.56;;;1.52;100.00
10948;BME280;5526;42.070;24.752;2023-02-05T01:29:01;98995.00;;;1.58;100.00
10948;BME280;5526;42.070;24.752;2023-02-05T01:31:28;99009.34;;;1.48;100.00
10948;BME280;5526;42.070;24.752;2023-02-05T01:33:55;98981.00;;;1.33;100.00
10948;BME280;5526;42.070;24.752;2023-02-05T01:36:22;99010.56;;;1.52;100.00
10948;BME280;5526;42.070;24.752;2023-02-05T01:38:49;99017.53;;;1.51;100.00
10948;BME280;5526;42.070;24.752;2023-02-05T01:41:19;99026.88;;;1.46;100.00
10948;BME280;5526;42.070;24.752;2023-02-05T01:44:05;99031.69;;;1.49;100.00
10948;BME280;5526;42.070;24.752;2023-02-05T01:46:34;99040.66;;;1.46;100.00
10948;BME280;5526;42.070;24.752;2023-02-05T01:49:01;99033.84;;;1.39;100.00
10948;BME280;5526;42.070;24.752;2023-02-05T01:51:29;99056.16;;;1.33;100.00
10948;BME280;5526;42.070;24.752;2023-02-05T01:53:57;99024.22;;;1.26;100.00
10948;BME280;5526;42.070;24.752;2023-02-05T01:56:29;99038.63;;;1.35;100.00
10948;BME280;5526;42.070;24.752;2023-02-05T01:58:59;99044.63;;;1.36;100.00
10948;BME280;5526;42.070;24.752;2023-02-05T02:01:30;99054.34;;;1.27;100.00
10948;BME280;5526;42.070;24.752;2023-02-05T02:04:00;99043.72;;;1.16;100.00
10948;BME280;5526;42.070;24.752;2023-02-05T02:06:29;99050.53;;;1.23;100.00
10948;BME280;5526;42.070;24.752;2023-02-05T02:08:57;99061.28;;;1.27;100.00
10948;BME280;5526;42.070;24.752;2023-02-05T02:11:25;99065.88;;;1.25;100.00
10948;BME280;5526;42.070;24.752;2023-02-05T02:13:54;99063.66;;;1.22;100.00
10948;BME280;5526;42.070;24.752;2023-02-05T02:16:23;99065.44;;;1.15;100.00
10948;BME280;5526;42.070;24.752;2023-02-05T02:18:52;99074.59;;;1.17;100.00
10948;BME280;5526;42.070;24.752;2023-02-05T02:21:40;99075.22;;;1.19;100.00
10948;BME280;5526;42.070;24.752;2023-02-05T02:24:55;99066.81;;;1.11;100.00
10948;BME280;5526;42.070;24.752;2023-02-05T02:27:36;99073.16;;;1.08;100.00
10948;BME280;5526;42.070;24.752;2023-02-05T02:30:08;99074.47;;;0.91;100.00
10948;BME280;5526;42.070;24.752;2023-02-05T02:32:40;99079.13;;;1.02;100.00
10948;BME280;5526;42.070;24.752;2023-02-05T02:35:15;99084.72;;;1.06;100.00
10948;BME280;5526;42.070;24.752;2023-02-05T02:37:47;99089.09;;;1.05;100.00
10948;BME280;5526;42.070;24.752;2023-02-05T02:40:20;99075.88;;;0.94;100.00
10948;BME280;5526;42.070;24.752;2023-02-05T02:42:54;99094.34;;;0.84;100.00
10948;BME280;5526;42.070;24.752;2023-02-05T02:45:26;99093.59;;;0.90;100.00
10948;BME280;5526;42.070;24.752;2023-02-05T02:47:57;99085.94;;;0.82;100.00
10948;BME280;5526;42.070;24.752;2023-02-05T02:50:27;99085.31;;;0.53;100.00
10948;BME280;5526;42.070;24.752;2023-02-05T02:53:00;99101.13;;;0.58;100.00
10948;BME280;5526;42.070;24.752;2023-02-05T02:55:33;99103.56;;;0.66;100.00
10948;BME280;5526;42.070;24.752;2023-02-05T02:58:03;99068.38;;;0.50;100.00
10948;BME280;5526;42.070;24.752;2023-02-05T03:00:33;99102.75;;;0.65;100.00
10948;BME280;5526;42.070;24.752;2023-02-05T03:03:04;99103.72;;;0.58;100.00
10948;BME280;5526;42.070;24.752;2023-02-05T03:05:33;99108.50;;;0.61;100.00
10948;BME280;5526;42.070;24.752;2023-02-05T03:08:05;99085.91;;;0.48;100.00
10948;BME280;5526;42.070;24.752;2023-02-05T03:10:37;99112.06;;;0.60;100.00
10948;BME280;5526;42.070;24.752;2023-02-05T03:13:09;99096.59;;;0.66;100.00
10948;BME280;5526;42.070;24.752;2023-02-05T03:15:37;99089.41;;;0.62;100.00
10948;BME280;5526;42.070;24.752;2023-02-05T03:18:04;99088.03;;;0.66;100.00
10948;BME280;5526;42.070;24.752;2023-02-05T03:20:35;99077.69;;;0.66;100.00
10948;BME280;5526;42.070;24.752;2023-02-05T03:23:04;99089.41;;;0.62;100.00
10948;BME280;5526;42.070;24.752;2023-02-05T03:25:31;99090.59;;;0.59;100.00
10948;BME280;5526;42.070;24.752;2023-02-05T03:27:58;99102.84;;;0.51;100.00
10948;BME280;5526;42.070;24.752;2023-02-05T03:30:31;99110.63;;;0.51;100.00
10948;BME280;5526;42.070;24.752;2023-02-05T03:33:12;99104.41;;;0.45;100.00
10948;BME280;5526;42.070;24.752;2023-02-05T03:35:46;99100.22;;;0.44;100.00
10948;BME280;5526;42.070;24.752;2023-02-05T03:38:27;99110.44;;;0.52;100.00
10948;BME280;5526;42.070;24.752;2023-02-05T03:41:09;99114.16;;;0.43;100.00
10948;BME280;5526;42.070;24.752;2023-02-05T03:43:46;99114.34;;;0.42;100.00
10948;BME280;5526;42.070;24.752;2023-02-05T03:46:19;99121.16;;;0.49;100.00
10948;BME280;5526;42.070;24.752;2023-02-05T03:49:02;99117.84;;;0.55;100.00
10948;BME280;5526;42.070;24.752;2023-02-05T03:51:36;99123.44;;;0.59;100.00
10948;BME280;5526;42.070;24.752;2023-02-05T03:54:10;99130.25;;;0.66;100.00
10948;BME280;5526;42.070;24.752;2023-02-05T03:56:43;99135.25;;;0.68;100.00
10948;BME280;5526;42.070;24.752;2023-02-05T03:59:13;99132.56;;;0.55;100.00
10948;BME280;5526;42.070;24.752;2023-02-05T04:01:44;99135.16;;;0.55;100.00
10948;BME280;5526;42.070;24.752;2023-02-05T04:04:12;99138.09;;;0.52;100.00
10948;BME280;5526;42.070;24.752;2023-02-05T04:06:39;99140.94;;;0.36;100.00
10948;BME280;5526;42.070;24.752;2023-02-05T04:09:06;99142.72;;;0.35;100.00
10948;BME280;5526;42.070;24.752;2023-02-05T04:11:33;99154.13;;;0.41;100.00
10948;BME280;5526;42.070;24.752;2023-02-05T04:14:00;99148.09;;;0.55;100.00
10948;BME280;5526;42.070;24.752;2023-02-05T04:16:27;99152.16;;;0.64;100.00
10948;BME280;5526;42.070;24.752;2023-02-05T04:18:55;99152.28;;;0.56;100.00
10948;BME280;5526;42.070;24.752;2023-02-05T04:21:22;99154.00;;;0.49;100.00
10948;BME280;5526;42.070;24.752;2023-02-05T04:23:49;99154.31;;;0.39;100.00
10948;BME280;5526;42.070;24.752;2023-02-05T04:26:16;99161.66;;;0.36;100.00
10948;BME280;5526;42.070;24.752;2023-02-05T04:28:43;99158.94;;;0.44;100.00
10948;BME280;5526;42.070;24.752;2023-02-05T04:31:11;99163.22;;;0.16;100.00
10948;BME280;5526;42.070;24.752;2023-02-05T04:33:38;99177.41;;;0.20;100.00
10948;BME280;5526;42.070;24.752;2023-02-05T04:36:08;99175.06;;;0.25;100.00
10948;BME280;5526;42.070;24.752;2023-02-05T04:38:35;99170.47;;;0.05;100.00
10948;BME280;5526;42.070;24.752;2023-02-05T04:41:02;99162.28;;;0.02;100.00
10948;BME280;5526;42.070;24.752;2023-02-05T04:43:29;99173.88;;;0.06;100.00
10948;BME280;5526;42.070;24.752;2023-02-05T04:45:56;99163.59;;;0.13;100.00
10948;BME280;5526;42.070;24.752;2023-02-05T04:48:23;99174.28;;;0.24;100.00
10948;BME280;5526;42.070;24.752;2023-02-05T04:50:50;99169.00;;;0.17;100.00
10948;BME280;5526;42.070;24.752;2023-02-05T04:53:18;99185.53;;;0.17;100.00
10948;BME280;5526;42.070;24.752;2023-02-05T04:55:45;99184.44;;;0.26;100.00
10948;BME280;5526;42.070;24.752;2023-02-05T04:58:12;99183.94;;;0.16;100.00
10948;BME280;5526;42.070;24.752;2023-02-05T05:00:39;99183.56;;;0.19;100.00
10948;BME280;5526;42.070;24.752;2023-02-05T05:03:06;99194.34;;;0.22;100.00
10948;BME280;5526;42.070;24.752;2023-02-05T05:05:33;99182.66;;;0.26;100.00
10948;BME280;5526;42.070;24.752;2023-02-05T05:08:01;99197.28;;;0.34;100.00
10948;BME280;5526;42.070;24.752;2023-02-05T05:10:29;99182.09;;;0.31;100.00
10948;BME280;5526;42.070;24.752;2023-02-05T05:12:56;99197.06;;;0.35;100.00
10948;BME280;5526;42.070;24.752;2023-02-05T05:15:23;99203.59;;;0.31;100.00
10948;BME280;5526;42.070;24.752;2023-02-05T05:17:50;99202.06;;;0.37;100.00
10948;BME280;5526;42.070;24.752;2023-02-05T05:20:17;99196.47;;;0.33;100.00
10948;BME280;5526;42.070;24.752;2023-02-05T05:22:44;99183.88;;;0.30;100.00
10948;BME280;5526;42.070;24.752;2023-02-05T05:25:11;99205.22;;;0.32;100.00
10948;BME280;5526;42.070;24.752;2023-02-05T05:27:39;99210.09;;;0.42;100.00
10948;BME280;5526;42.070;24.752;2023-02-05T05:30:08;99180.63;;;0.22;100.00
10948;BME280;5526;42.070;24.752;2023-02-05T05:32:35;99220.69;;;0.47;100.00
10948;BME280;5526;42.070;24.752;2023-02-05T05:35:02;99228.47;;;0.47;100.00
10948;BME280;5526;42.070;24.752;2023-02-05T05:37:29;99235.47;;;0.53;100.00
10948;BME280;5526;42.070;24.752;2023-02-05T05:39:56;99231.28;;;0.52;100.00
10948;BME280;5526;42.070;24.752;2023-02-05T05:42:41;99240.41;;;0.48;100.00
10948;BME280;5526;42.070;24.752;2023-02-05T05:45:40;99242.28;;;0.54;100.00
10948;BME280;5526;42.070;24.752;2023-02-05T05:48:06;99252.34;;;0.63;100.00
10948;BME280;5526;42.070;24.752;2023-02-05T05:50:34;99247.53;;;0.60;100.00
10948;BME280;5526;42.070;24.752;2023-02-05T05:53:01;99249.31;;;0.60;100.00
10948;BME280;5526;42.070;24.752;2023-02-05T05:55:28;99255.59;;;0.72;100.00
10948;BME280;5526;42.070;24.752;2023-02-05T05:57:56;99270.25;;;0.79;100.00
10948;BME280;5526;42.070;24.752;2023-02-05T06:00:23;99284.72;;;0.74;100.00
10948;BME280;5526;42.070;24.752;2023-02-05T06:02:50;99285.72;;;0.73;100.00
10948;BME280;5526;42.070;24.752;2023-02-05T06:05:17;99286.75;;;0.78;100.00
10948;BME280;5526;42.070;24.752;2023-02-05T06:07:44;99261.25;;;0.61;100.00
10948;BME280;5526;42.070;24.752;2023-02-05T06:10:11;99278.84;;;0.65;100.00
10948;BME280;5526;42.070;24.752;2023-02-05T06:12:38;99271.25;;;0.64;100.00
10948;BME280;5526;42.070;24.752;2023-02-05T06:15:07;99269.25;;;0.59;100.00
10948;BME280;5526;42.070;24.752;2023-02-05T06:17:34;99285.50;;;0.53;100.00
10948;BME280;5526;42.070;24.752;2023-02-05T06:20:01;99273.19;;;0.55;100.00
10948;BME280;5526;42.070;24.752;2023-02-05T06:22:28;99288.78;;;0.62;100.00
10948;BME280;5526;42.070;24.752;2023-02-05T06:24:55;99300.47;;;0.58;100.00
10948;BME280;5526;42.070;24.752;2023-02-05T06:27:22;99305.09;;;0.62;100.00
10948;BME280;5526;42.070;24.752;2023-02-05T06:29:49;99296.38;;;0.63;100.00
10948;BME280;5526;42.070;24.752;2023-02-05T06:32:18;99300.63;;;0.71;100.00
10948;BME280;5526;42.070;24.752;2023-02-05T06:34:46;99303.28;;;0.77;100.00
10948;BME280;5526;42.070;24.752;2023-02-05T06:37:13;99308.34;;;0.85;100.00
10948;BME280;5526;42.070;24.752;2023-02-05T06:39:40;99308.69;;;0.82;100.00
10948;BME280;5526;42.070;24.752;2023-02-05T06:42:07;99316.16;;;0.92;100.00
10948;BME280;5526;42.070;24.752;2023-02-05T06:44:34;99327.59;;;0.97;100.00
10948;BME280;5526;42.070;24.752;2023-02-05T06:47:02;99326.75;;;1.11;100.00
10948;BME280;5526;42.070;24.752;2023-02-05T06:49:30;99319.41;;;1.15;100.00
10948;BME280;5526;42.070;24.752;2023-02-05T06:51:57;99336.75;;;1.35;100.00
10948;BME280;5526;42.070;24.752;2023-02-05T06:54:24;99336.47;;;1.51;100.00
10948;BME280;5526;42.070;24.752;2023-02-05T06:56:51;99360.50;;;1.60;100.00
10948;BME280;5526;42.070;24.752;2023-02-05T06:59:18;99357.91;;;1.60;100.00
10948;BME280;5526;42.070;24.752;2023-02-05T07:01:45;99373.75;;;1.71;100.00
10948;BME280;5526;42.070;24.752;2023-02-05T07:04:12;99377.97;;;1.72;100.00
10948;BME280;5526;42.070;24.752;2023-02-05T07:06:40;99385.44;;;1.61;100.00
10948;BME280;5526;42.070;24.752;2023-02-05T07:09:07;99391.81;;;1.58;100.00
10948;BME280;5526;42.070;24.752;2023-02-05T07:11:34;99391.13;;;1.50;100.00
10948;BME280;5526;42.070;24.752;2023-02-05T07:14:02;99403.31;;;1.35;100.00
10948;BME280;5526;42.070;24.752;2023-02-05T07:16:29;99409.25;;;1.50;100.00
10948;BME280;5526;42.070;24.752;2023-02-05T07:18:56;99400.53;;;1.51;100.00
10948;BME280;5526;42.070;24.752;2023-02-05T07:21:24;99407.72;;;1.55;100.00
10948;BME280;5526;42.070;24.752;2023-02-05T07:23:52;99413.22;;;1.46;100.00
10948;BME280;5526;42.070;24.752;2023-02-05T07:26:19;99416.16;;;1.43;100.00
10948;BME280;5526;42.070;24.752;2023-02-05T07:28:46;99418.28;;;1.54;100.00
10948;BME280;5526;42.070;24.752;2023-02-05T07:31:15;99421.31;;;1.78;100.00
10948;BME280;5526;42.070;24.752;2023-02-05T07:33:43;99427.59;;;1.90;100.00
10948;BME280;5526;42.070;24.752;2023-02-05T07:36:12;99414.97;;;1.87;100.00
10948;BME280;5526;42.070;24.752;2023-02-05T07:38:41;99437.13;;;2.11;100.00
10948;BME280;5526;42.070;24.752;2023-02-05T07:41:11;99425.44;;;2.21;100.00
10948;BME280;5526;42.070;24.752;2023-02-05T07:43:39;99406.59;;;2.13;100.00
10948;BME280;5526;42.070;24.752;2023-02-05T07:46:08;99426.50;;;2.33;100.00
10948;BME280;5526;42.070;24.752;2023-02-05T07:48:36;99425.34;;;2.42;100.00
10948;BME280;5526;42.070;24.752;2023-02-05T07:51:03;99432.41;;;2.48;100.00
10948;BME280;5526;42.070;24.752;2023-02-05T07:53:31;99435.56;;;2.44;100.00
10948;BME280;5526;42.070;24.752;2023-02-05T07:56:01;99442.81;;;2.55;100.00
10948;BME280;5526;42.070;24.752;2023-02-05T07:58:30;99439.53;;;2.74;100.00
10948;BME280;5526;42.070;24.752;2023-02-05T08:00:59;99424.59;;;2.82;100.00
10948;BME280;5526;42.070;24.752;2023-02-05T08:03:26;99423.81;;;2.95;100.00
10948;BME280;5526;42.070;24.752;2023-02-05T08:05:53;99426.03;;;2.98;100.00
10948;BME280;5526;42.070;24.752;2023-02-05T08:08:21;99425.88;;;3.06;100.00
10948;BME280;5526;42.070;24.752;2023-02-05T08:10:54;99428.56;;;3.25;100.00
10948;BME280;5526;42.070;24.752;2023-02-05T08:13:21;99430.00;;;3.47;100.00
10948;BME280;5526;42.070;24.752;2023-02-05T08:15:49;99430.59;;;3.49;98.93
10948;BME280;5526;42.070;24.752;2023-02-05T08:18:16;99437.78;;;3.41;97.15
10948;BME280;5526;42.070;24.752;2023-02-05T08:20:44;99433.97;;;3.30;96.33
10948;BME280;5526;42.070;24.752;2023-02-05T08:23:10;99434.88;;;3.10;95.37
10948;BME280;5526;42.070;24.752;2023-02-05T08:25:38;99442.44;;;2.98;94.87
10948;BME280;5526;42.070;24.752;2023-02-05T08:28:05;99445.06;;;3.05;94.50
10948;BME280;5526;42.070;24.752;2023-02-05T08:30:32;99449.34;;;3.25;94.29
10948;BME280;5526;42.070;24.752;2023-02-05T08:33:00;99452.00;;;3.38;92.82
10948;BME280;5526;42.070;24.752;2023-02-05T08:35:27;99457.22;;;3.51;92.56
10948;BME280;5526;42.070;24.752;2023-02-05T08:37:54;99453.84;;;3.70;91.27
10948;BME280;5526;42.070;24.752;2023-02-05T08:40:21;99468.25;;;3.60;91.30
10948;BME280;5526;42.070;24.752;2023-02-05T08:42:48;99474.44;;;3.52;89.62
10948;BME280;5526;42.070;24.752;2023-02-05T08:45:17;99469.03;;;3.54;89.06
10948;BME280;5526;42.070;24.752;2023-02-05T08:47:44;99471.22;;;3.44;89.62
10948;BME280;5526;42.070;24.752;2023-02-05T08:50:12;99475.69;;;3.82;88.58
10948;BME280;5526;42.070;24.752;2023-02-05T08:52:40;99488.53;;;4.16;86.75
10948;BME280;5526;42.070;24.752;2023-02-05T08:55:07;99489.72;;;3.88;85.24
10948;BME280;5526;42.070;24.752;2023-02-05T08:57:34;99481.72;;;3.96;86.39
10948;BME280;5526;42.070;24.752;2023-02-05T09:00:01;99478.91;;;4.10;85.54
10948;BME280;5526;42.070;24.752;2023-02-05T09:02:28;99484.72;;;4.25;82.29
10948;BME280;5526;42.070;24.752;2023-02-05T09:04:55;99481.31;;;4.05;83.04
10948;BME280;5526;42.070;24.752;2023-02-05T09:07:23;99487.50;;;4.63;81.73
10948;BME280;5526;42.070;24.752;2023-02-05T09:09:50;99489.81;;;5.04;80.25
10948;BME280;5526;42.070;24.752;2023-02-05T09:12:17;99483.41;;;5.50;77.08
10948;BME280;5526;42.070;24.752;2023-02-05T09:14:44;99490.50;;;5.37;66.07
10948;BME280;5526;42.070;24.752;2023-02-05T09:17:11;99483.13;;;5.27;64.24
10948;BME280;5526;42.070;24.752;2023-02-05T09:19:40;99487.47;;;5.40;63.14
10948;BME280;5526;42.070;24.752;2023-02-05T09:22:07;99491.78;;;5.15;60.48
10948;BME280;5526;42.070;24.752;2023-02-05T09:24:37;99496.97;;;5.21;58.73
10948;BME280;5526;42.070;24.752;2023-02-05T09:27:04;99488.56;;;5.19;60.88
10948;BME280;5526;42.070;24.752;2023-02-05T09:29:31;99489.28;;;4.82;59.25
10948;BME280;5526;42.070;24.752;2023-02-05T09:31:58;99490.44;;;4.93;59.48
10948;BME280;5526;42.070;24.752;2023-02-05T09:34:25;99500.06;;;4.99;59.18
10948;BME280;5526;42.070;24.752;2023-02-05T09:36:52;99499.50;;;4.84;58.83
10948;BME280;5526;42.070;24.752;2023-02-05T09:39:19;99505.56;;;4.58;58.57
10948;BME280;5526;42.070;24.752;2023-02-05T09:41:53;99499.16;;;4.47;57.48
10948;BME280;5526;42.070;24.752;2023-02-05T09:44:34;99495.28;;;4.89;59.44
10948;BME280;5526;42.070;24.752;2023-02-05T09:47:10;99494.50;;;4.82;58.61
10948;BME280;5526;42.070;24.752;2023-02-05T09:49:47;99499.69;;;4.95;58.59
10948;BME280;5526;42.070;24.752;2023-02-05T09:52:19;99479.63;;;4.89;59.80
10948;BME280;5526;42.070;24.752;2023-02-05T09:54:50;99492.41;;;5.10;59.05
10948;BME280;5526;42.070;24.752;2023-02-05T09:57:29;99496.09;;;4.83;57.77
10948;BME280;5526;42.070;24.752;2023-02-05T09:59:58;99493.53;;;4.44;59.81
10948;BME280;5526;42.070;24.752;2023-02-05T10:02:28;99489.94;;;4.32;60.34
10948;BME280;5526;42.070;24.752;2023-02-05T10:04:57;99498.75;;;4.24;61.75
10948;BME280;5526;42.070;24.752;2023-02-05T10:07:29;99503.34;;;3.90;63.87
10948;BME280;5526;42.070;24.752;2023-02-05T10:10:22;99507.72;;;3.76;67.10
10948;BME280;5526;42.070;24.752;2023-02-05T10:13:06;99505.78;;;4.24;67.45
10948;BME280;5526;42.070;24.752;2023-02-05T10:18:36;99500.13;;;3.88;71.22
10948;BME280;5526;42.070;24.752;2023-02-05T10:21:21;99507.97;;;4.07;70.43
10948;BME280;5526;42.070;24.752;2023-02-05T10:24:03;99506.78;;;4.23;67.96
10948;BME280;5526;42.070;24.752;2023-02-05T10:26:40;99512.44;;;5.67;62.01
10948;BME280;5526;42.070;24.752;2023-02-05T10:29:21;99507.47;;;5.08;61.39
10948;BME280;5526;42.070;24.752;2023-02-05T10:31:58;99509.91;;;4.90;62.78
10948;BME280;5526;42.070;24.752;2023-02-05T10:34:59;99511.31;;;4.99;59.55
10948;BME280;5526;42.070;24.752;2023-02-05T10:37:42;99506.81;;;5.26;57.21
10948;BME280;5526;42.070;24.752;2023-02-05T10:40:12;99514.84;;;5.24;58.55
10948;BME280;5526;42.070;24.752;2023-02-05T10:42:43;99511.13;;;4.88;58.38
10948;BME280;5526;42.070;24.752;2023-02-05T10:45:17;99511.78;;;4.63;58.56
10948;BME280;5526;42.070;24.752;2023-02-05T10:47:59;99524.19;;;4.55;58.65
10948;BME280;5526;42.070;24.752;2023-02-05T10:50:42;99515.78;;;4.59;58.57
10948;BME280;5526;42.070;24.752;2023-02-05T10:53:13;99517.97;;;4.76;58.82
10948;BME280;5526;42.070;24.752;2023-02-05T10:55:42;99513.75;;;4.75;58.77
10948;BME280;5526;42.070;24.752;2023-02-05T10:58:24;99514.00;;;4.40;58.63
10948;BME280;5526;42.070;24.752;2023-02-05T11:00:55;99512.59;;;4.31;60.05
10948;BME280;5526;42.070;24.752;2023-02-05T11:03:23;99508.38;;;4.43;59.70
10948;BME280;5526;42.070;24.752;2023-02-05T11:05:50;99522.00;;;4.45;59.04
10948;BME280;5526;42.070;24.752;2023-02-05T11:08:31;99523.22;;;4.43;57.56
10948;BME280;5526;42.070;24.752;2023-02-05T11:10:59;99514.78;;;4.28;60.15
10948;BME280;5526;42.070;24.752;2023-02-05T11:13:27;99514.97;;;4.20;61.18
10948;BME280;5526;42.070;24.752;2023-02-05T11:15:58;99511.00;;;4.30;60.89
10948;BME280;5526;42.070;24.752;2023-02-05T11:18:27;99519.00;;;4.42;60.21
10948;BME280;5526;42.070;24.752;2023-02-05T11:20:56;99511.78;;;4.18;60.06
10948;BME280;5526;42.070;24.752;2023-02-05T11:23:24;99518.59;;;4.19;60.43
10948;BME280;5526;42.070;24.752;2023-02-05T11:25:53;99518.97;;;3.90;60.10
10948;BME280;5526;42.070;24.752;2023-02-05T11:28:27;99519.38;;;3.87;58.72
10948;BME280;5526;42.070;24.752;2023-02-05T11:30:56;99514.09;;;3.67;58.95
10948;BME280;5526;42.070;24.752;2023-02-05T11:33:28;99510.53;;;3.75;58.70
10948;BME280;5526;42.070;24.752;2023-02-05T11:35:58;99521.19;;;4.06;58.38
10948;BME280;5526;42.070;24.752;2023-02-05T11:38:30;99509.97;;;4.12;57.24
10948;BME280;5526;42.070;24.752;2023-02-05T11:40:59;99504.56;;;4.26;56.55
10948;BME280;5526;42.070;24.752;2023-02-05T11:43:31;99501.16;;;4.32;56.57
10948;BME280;5526;42.070;24.752;2023-02-05T11:46:02;99500.16;;;4.53;56.36
10948;BME280;5526;42.070;24.752;2023-02-05T11:48:36;99495.13;;;4.64;56.39
10948;BME280;5526;42.070;24.752;2023-02-05T11:51:06;99500.91;;;4.86;55.73
10948;BME280;5526;42.070;24.752;2023-02-05T11:53:34;99498.50;;;4.78;55.40
10948;BME280;5526;42.070;24.752;2023-02-05T11:56:07;99493.09;;;4.73;55.70
10948;BME280;5526;42.070;24.752;2023-02-05T11:58:35;99498.75;;;4.57;55.38
10948;BME280;5526;42.070;24.752;2023-02-05T12:01:19;99504.13;;;4.75;55.46
10948;BME280;5526;42.070;24.752;2023-02-05T12:03:56;99503.06;;;4.96;55.26
10948;BME280;5526;42.070;24.752;2023-02-05T12:06:25;99497.63;;;5.10;54.01
10948;BME280;5526;42.070;24.752;2023-02-05T12:08:56;99502.09;;;4.90;53.69
10948;BME280;5526;42.070;24.752;2023-02-05T12:11:41;99501.50;;;4.75;52.33
10948;BME280;5526;42.070;24.752;2023-02-05T12:14:39;99502.97;;;4.45;52.75
10948;BME280;5526;42.070;24.752;2023-02-05T12:17:19;99504.75;;;4.18;52.00
10948;BME280;5526;42.070;24.752;2023-02-05T12:19:57;99504.38;;;4.34;51.55
10948;BME280;5526;42.070;24.752;2023-02-05T12:22:48;99506.16;;;4.14;52.56
10948;BME280;5526;42.070;24.752;2023-02-05T12:25:22;99516.00;;;3.99;54.26
10948;BME280;5526;42.070;24.752;2023-02-05T12:28:01;99517.41;;;4.15;54.35
10948;BME280;5526;42.070;24.752;2023-02-05T12:30:47;99519.78;;;4.03;53.17
10948;BME280;5526;42.070;24.752;2023-02-05T12:33:30;99523.19;;;3.97;52.20
10948;BME280;5526;42.070;24.752;2023-02-05T12:36:09;99525.78;;;3.97;53.48
10948;BME280;5526;42.070;24.752;2023-02-05T12:38:47;99529.97;;;3.98;52.71
10948;BME280;5526;42.070;24.752;2023-02-05T12:41:27;99523.94;;;3.85;52.04
10948;BME280;5526;42.070;24.752;2023-02-05T12:44:06;99510.47;;;3.55;50.79
10948;BME280;5526;42.070;24.752;2023-02-05T12:46:47;99520.75;;;3.83;51.41
10948;BME280;5526;42.070;24.752;2023-02-05T12:49:31;99525.53;;;3.73;53.34
10948;BME280;5526;42.070;24.752;2023-02-05T12:52:17;99527.16;;;3.87;51.71
10948;BME280;5526;42.070;24.752;2023-02-05T12:54:55;99513.34;;;3.80;51.88
10948;BME280;5526;42.070;24.752;2023-02-05T12:57:32;99516.91;;;3.66;52.15
10948;BME280;5526;42.070;24.752;2023-02-05T13:00:04;99530.09;;;3.58;51.65
10948;BME280;5526;42.070;24.752;2023-02-05T13:02:35;99523.28;;;3.57;53.25
10948;BME280;5526;42.070;24.752;2023-02-05T13:05:13;99522.91;;;3.66;52.73
10948;BME280;5526;42.070;24.752;2023-02-05T13:07:43;99531.16;;;3.83;52.39
10948;BME280;5526;42.070;24.752;2023-02-05T13:10:16;99528.28;;;3.58;53.65
10948;BME280;5526;42.070;24.752;2023-02-05T13:12:47;99527.53;;;3.71;53.89
10948;BME280;5526;42.070;24.752;2023-02-05T13:15:18;99532.09;;;3.62;53.70
10948;BME280;5526;42.070;24.752;2023-02-05T13:17:56;99532.81;;;3.37;53.82
10948;BME280;5526;42.070;24.752;2023-02-05T13:20:31;99535.59;;;3.29;53.70
10948;BME280;5526;42.070;24.752;2023-02-05T13:23:16;99532.69;;;3.11;53.59
10948;BME280;5526;42.070;24.752;2023-02-05T13:26:02;99529.13;;;3.12;54.08